sensor_id;sensor_type;location;lat;lon;timestamp;P1;durP1;ratioP1;P2;durP2;ratioP2
42972;SDS011;28610;51.214;6.962;2022-12-18T00:01:46;15.93;;;10.33;;
42972;SDS011;28610;51.214;6.962;2022-12-18T00:04:32;16.00;;;9.90;;
42972;SDS011;28610;51.214;6.962;2022-12-18T00:07:18;22.10;;;10.87;;
42972;SDS011;28610;51.214;6.962;2022-12-18T00:10:04;18.73;;;9.90;;
42972;SDS011;28610;51.214;6.962;2022-12-18T00:12:51;18.40;;;10.70;;
42972;SDS011;28610;51.214;6.962;2022-12-18T00:15:37;18.03;;;10.80;;
42972;SDS011;28610;51.214;6.962;2022-12-18T00:18:23;17.53;;;10.90;;
42972;SDS011;28610;51.214;6.962;2022-12-18T00:21:09;15.63;;;9.97;;
42972;SDS011;28610;51.214;6.962;2022-12-18T00:23:55;16.20;;;10.27;;
42972;SDS011;28610;51.214;6.962;2022-12-18T00:26:41;17.70;;;10.20;;
42972;SDS011;28610;51.214;6.962;2022-12-18T00:29:28;18.60;;;10.13;;
42972;SDS011;28610;51.214;6.962;2022-12-18T00:32:14;21.43;;;10.77;;
42972;SDS011;28610;51.214;6.962;2022-12-18T00:34:59;18.23;;;11.00;;
42972;SDS011;28610;51.214;6.962;2022-12-18T00:37:45;19.40;;;10.40;;
42972;SDS011;28610;51.214;6.962;2022-12-18T00:40:30;18.57;;;10.07;;
42972;SDS011;28610;51.214;6.962;2022-12-18T00:43:16;16.83;;;10.10;;
42972;SDS011;28610;51.214;6.962;2022-12-18T00:46:02;17.77;;;9.67;;
42972;SDS011;28610;51.214;6.962;2022-12-18T00:48:47;18.10;;;10.17;;
42972;SDS011;28610;51.214;6.962;2022-12-18T00:51:33;19.10;;;10.03;;
42972;SDS011;28610;51.214;6.962;2022-12-18T00:54:18;16.27;;;9.97;;
42972;SDS011;28610;51.214;6.962;2022-12-18T00:57:04;18.23;;;10.50;;
42972;SDS011;28610;51.214;6.962;2022-12-18T00:59:50;21.37;;;10.50;;
42972;SDS011;28610;51.214;6.962;2022-12-18T01:02:36;14.37;;;9.77;;
42972;SDS011;28610;51.214;6.962;2022-12-18T01:05:22;16.20;;;10.47;;
42972;SDS011;28610;51.214;6.962;2022-12-18T01:08:08;21.47;;;10.67;;
42972;SDS011;28610;51.214;6.962;2022-12-18T01:10:54;17.77;;;10.73;;
42972;SDS011;28610;51.214;6.962;2022-12-18T01:13:39;13.97;;;9.50;;
42972;SDS011;28610;51.214;6.962;2022-12-18T01:16:25;18.43;;;10.57;;
42972;SDS011;28610;51.214;6.962;2022-12-18T01:19:12;16.90;;;9.80;;
42972;SDS011;28610;51.214;6.962;2022-12-18T01:21:57;17.93;;;10.53;;
42972;SDS011;28610;51.214;6.962;2022-12-18T01:24:43;19.17;;;10.93;;
42972;SDS011;28610;51.214;6.962;2022-12-18T01:27:28;18.40;;;10.20;;
42972;SDS011;28610;51.214;6.962;2022-12-18T01:30:14;18.77;;;10.40;;
42972;SDS011;28610;51.214;6.962;2022-12-18T01:32:59;15.70;;;9.77;;
42972;SDS011;28610;51.214;6.962;2022-12-18T01:35:46;19.67;;;9.97;;
42972;SDS011;28610;51.214;6.962;2022-12-18T01:38:32;17.23;;;10.10;;
42972;SDS011;28610;51.214;6.962;2022-12-18T01:41:19;24.20;;;11.10;;
42972;SDS011;28610;51.214;6.962;2022-12-18T01:47:06;18.73;;;11.00;;
42972;SDS011;28610;51.214;6.962;2022-12-18T01:49:52;19.17;;;11.50;;
42972;SDS011;28610;51.214;6.962;2022-12-18T01:52:39;18.37;;;10.77;;
42972;SDS011;28610;51.214;6.962;2022-12-18T01:55:27;17.67;;;10.70;;
42972;SDS011;28610;51.214;6.962;2022-12-18T01:58:14;17.73;;;10.13;;
42972;SDS011;28610;51.214;6.962;2022-12-18T02:01:00;17.33;;;9.77;;
42972;SDS011;28610;51.214;6.962;2022-12-18T02:03:46;18.50;;;10.60;;
42972;SDS011;28610;51.214;6.962;2022-12-18T02:06:33;16.00;;;9.80;;
42972;SDS011;28610;51.214;6.962;2022-12-18T02:09:24;14.93;;;9.47;;
42972;SDS011;28610;51.214;6.962;2022-12-18T02:12:13;18.57;;;9.83;;
42972;SDS011;28610;51.214;6.962;2022-12-18T02:15:03;16.73;;;10.47;;
42972;SDS011;28610;51.214;6.962;2022-12-18T02:17:53;16.23;;;9.87;;
42972;SDS011;28610;51.214;6.962;2022-12-18T02:20:40;16.33;;;9.43;;
42972;SDS011;28610;51.214;6.962;2022-12-18T02:23:35;15.73;;;9.77;;
42972;SDS011;28610;51.214;6.962;2022-12-18T02:26:25;15.63;;;9.93;;
42972;SDS011;28610;51.214;6.962;2022-12-18T02:29:13;17.47;;;10.07;;
42972;SDS011;28610;51.214;6.962;2022-12-18T02:32:00;15.33;;;9.73;;
42972;SDS011;28610;51.214;6.962;2022-12-18T02:34:46;19.03;;;10.17;;
42972;SDS011;28610;51.214;6.962;2022-12-18T02:37:33;17.43;;;9.93;;
42972;SDS011;28610;51.214;6.962;2022-12-18T02:40:19;15.97;;;9.87;;
42972;SDS011;28610;51.214;6.962;2022-12-18T02:43:11;19.63;;;9.93;;
42972;SDS011;28610;51.214;6.962;2022-12-18T02:45:57;18.30;;;10.47;;
42972;SDS011;28610;51.214;6.962;2022-12-18T02:48:44;14.57;;;10.30;;
42972;SDS011;28610;51.214;6.962;2022-12-18T02:51:30;15.47;;;9.43;;
42972;SDS011;28610;51.214;6.962;2022-12-18T02:54:20;15.53;;;10.13;;
42972;SDS011;28610;51.214;6.962;2022-12-18T02:57:11;15.83;;;9.60;;
42972;SDS011;28610;51.214;6.962;2022-12-18T03:00:03;18.43;;;9.73;;
42972;SDS011;28610;51.214;6.962;2022-12-18T03:02:51;13.20;;;8.60;;
42972;SDS011;28610;51.214;6.962;2022-12-18T03:05:41;14.80;;;9.80;;
42972;SDS011;28610;51.214;6.962;2022-12-18T03:08:29;14.23;;;9.53;;
42972;SDS011;28610;51.214;6.962;2022-12-18T03:11:15;13.53;;;9.10;;
42972;SDS011;28610;51.214;6.962;2022-12-18T03:14:21;13.63;;;9.67;;
42972;SDS011;28610;51.214;6.962;2022-12-18T03:17:09;15.17;;;9.00;;
42972;SDS011;28610;51.214;6.962;2022-12-18T03:19:56;14.93;;;9.33;;
42972;SDS011;28610;51.214;6.962;2022-12-18T03:22:44;16.03;;;9.87;;
42972;SDS011;28610;51.214;6.962;2022-12-18T03:25:32;15.40;;;9.20;;
42972;SDS011;28610;51.214;6.962;2022-12-18T03:28:20;17.63;;;9.70;;
42972;SDS011;28610;51.214;6.962;2022-12-18T03:31:06;13.97;;;8.87;;
42972;SDS011;28610;51.214;6.962;2022-12-18T03:33:55;15.73;;;9.00;;
42972;SDS011;28610;51.214;6.962;2022-12-18T03:36:41;16.50;;;9.60;;
42972;SDS011;28610;51.214;6.962;2022-12-18T03:39:26;13.37;;;9.37;;
42972;SDS011;28610;51.214;6.962;2022-12-18T03:42:15;15.83;;;9.20;;
42972;SDS011;28610;51.214;6.962;2022-12-18T03:45:02;16.60;;;9.27;;
42972;SDS011;28610;51.214;6.962;2022-12-18T03:47:54;15.40;;;9.03;;
42972;SDS011;28610;51.214;6.962;2022-12-18T03:50:45;14.67;;;8.90;;
42972;SDS011;28610;51.214;6.962;2022-12-18T03:53:33;12.43;;;8.70;;
42972;SDS011;28610;51.214;6.962;2022-12-18T03:56:19;16.33;;;9.10;;
42972;SDS011;28610;51.214;6.962;2022-12-18T03:59:07;13.03;;;8.60;;
42972;SDS011;28610;51.214;6.962;2022-12-18T04:01:53;12.17;;;8.30;;
42972;SDS011;28610;51.214;6.962;2022-12-18T04:04:40;16.37;;;9.10;;
42972;SDS011;28610;51.214;6.962;2022-12-18T04:07:29;16.20;;;8.67;;
42972;SDS011;28610;51.214;6.962;2022-12-18T04:10:15;12.83;;;8.57;;
42972;SDS011;28610;51.214;6.962;2022-12-18T04:13:01;14.47;;;9.03;;
42972;SDS011;28610;51.214;6.962;2022-12-18T04:15:46;12.97;;;8.20;;
42972;SDS011;28610;51.214;6.962;2022-12-18T04:18:32;13.67;;;8.63;;
42972;SDS011;28610;51.214;6.962;2022-12-18T04:21:18;13.90;;;8.83;;
42972;SDS011;28610;51.214;6.962;2022-12-18T04:24:05;11.77;;;8.50;;
42972;SDS011;28610;51.214;6.962;2022-12-18T04:26:51;15.07;;;8.40;;
42972;SDS011;28610;51.214;6.962;2022-12-18T04:29:37;12.33;;;8.13;;
42972;SDS011;28610;51.214;6.962;2022-12-18T04:32:22;12.23;;;8.00;;
42972;SDS011;28610;51.214;6.962;2022-12-18T04:35:08;13.80;;;8.50;;
42972;SDS011;28610;51.214;6.962;2022-12-18T04:37:55;15.20;;;8.57;;
42972;SDS011;28610;51.214;6.962;2022-12-18T04:40:42;13.13;;;8.10;;
42972;SDS011;28610;51.214;6.962;2022-12-18T04:43:27;11.80;;;8.60;;
42972;SDS011;28610;51.214;6.962;2022-12-18T04:46:13;12.60;;;8.60;;
42972;SDS011;28610;51.214;6.962;2022-12-18T04:48:58;13.07;;;8.47;;
42972;SDS011;28610;51.214;6.962;2022-12-18T04:51:44;12.60;;;7.70;;
42972;SDS011;28610;51.214;6.962;2022-12-18T04:54:30;13.13;;;8.53;;
42972;SDS011;28610;51.214;6.962;2022-12-18T04:57:16;12.73;;;8.37;;
42972;SDS011;28610;51.214;6.962;2022-12-18T05:00:02;13.30;;;8.10;;
42972;SDS011;28610;51.214;6.962;2022-12-18T05:02:48;14.60;;;8.77;;
42972;SDS011;28610;51.214;6.962;2022-12-18T05:05:34;12.60;;;7.77;;
42972;SDS011;28610;51.214;6.962;2022-12-18T05:08:20;10.90;;;8.33;;
42972;SDS011;28610;51.214;6.962;2022-12-18T05:11:06;12.73;;;8.07;;
42972;SDS011;28610;51.214;6.962;2022-12-18T05:13:53;13.13;;;8.23;;
42972;SDS011;28610;51.214;6.962;2022-12-18T05:16:40;11.37;;;7.90;;
42972;SDS011;28610;51.214;6.962;2022-12-18T05:19:26;11.50;;;7.73;;
42972;SDS011;28610;51.214;6.962;2022-12-18T05:22:11;14.73;;;8.40;;
42972;SDS011;28610;51.214;6.962;2022-12-18T05:24:57;11.37;;;8.13;;
42972;SDS011;28610;51.214;6.962;2022-12-18T05:27:42;11.43;;;7.90;;
42972;SDS011;28610;51.214;6.962;2022-12-18T05:30:30;12.90;;;7.70;;
42972;SDS011;28610;51.214;6.962;2022-12-18T05:33:15;11.20;;;7.90;;
42972;SDS011;28610;51.214;6.962;2022-12-18T05:36:01;15.47;;;8.30;;
42972;SDS011;28610;51.214;6.962;2022-12-18T05:38:47;12.60;;;8.30;;
42972;SDS011;28610;51.214;6.962;2022-12-18T05:41:32;10.87;;;7.73;;
42972;SDS011;28610;51.214;6.962;2022-12-18T05:44:18;13.20;;;8.63;;
42972;SDS011;28610;51.214;6.962;2022-12-18T05:47:05;12.73;;;8.00;;
42972;SDS011;28610;51.214;6.962;2022-12-18T05:49:51;14.97;;;8.67;;
42972;SDS011;28610;51.214;6.962;2022-12-18T05:52:36;14.37;;;8.57;;
42972;SDS011;28610;51.214;6.962;2022-12-18T05:55:25;11.37;;;8.00;;
42972;SDS011;28610;51.214;6.962;2022-12-18T05:58:14;13.47;;;8.03;;
42972;SDS011;28610;51.214;6.962;2022-12-18T06:01:05;14.63;;;7.80;;
42972;SDS011;28610;51.214;6.962;2022-12-18T06:03:53;14.83;;;8.47;;
42972;SDS011;28610;51.214;6.962;2022-12-18T06:06:38;12.60;;;8.80;;
42972;SDS011;28610;51.214;6.962;2022-12-18T06:09:24;13.47;;;8.47;;
42972;SDS011;28610;51.214;6.962;2022-12-18T06:12:09;12.70;;;8.70;;
42972;SDS011;28610;51.214;6.962;2022-12-18T06:14:55;12.43;;;8.87;;
42972;SDS011;28610;51.214;6.962;2022-12-18T06:17:40;12.07;;;8.50;;
42972;SDS011;28610;51.214;6.962;2022-12-18T06:20:27;13.10;;;8.53;;
42972;SDS011;28610;51.214;6.962;2022-12-18T06:23:12;16.00;;;9.40;;
42972;SDS011;28610;51.214;6.962;2022-12-18T06:25:58;16.57;;;9.30;;
42972;SDS011;28610;51.214;6.962;2022-12-18T06:28:44;14.93;;;9.43;;
42972;SDS011;28610;51.214;6.962;2022-12-18T06:31:29;17.60;;;9.47;;
42972;SDS011;28610;51.214;6.962;2022-12-18T06:34:15;13.87;;;8.70;;
42972;SDS011;28610;51.214;6.962;2022-12-18T06:37:01;16.70;;;8.93;;
42972;SDS011;28610;51.214;6.962;2022-12-18T06:39:47;13.30;;;8.93;;
42972;SDS011;28610;51.214;6.962;2022-12-18T06:42:32;15.90;;;9.13;;
42972;SDS011;28610;51.214;6.962;2022-12-18T06:45:18;13.13;;;8.87;;
42972;SDS011;28610;51.214;6.962;2022-12-18T06:48:03;13.93;;;8.60;;
42972;SDS011;28610;51.214;6.962;2022-12-18T06:50:49;12.97;;;8.60;;
42972;SDS011;28610;51.214;6.962;2022-12-18T06:53:36;17.23;;;8.73;;
42972;SDS011;28610;51.214;6.962;2022-12-18T06:56:22;14.47;;;9.00;;
42972;SDS011;28610;51.214;6.962;2022-12-18T06:59:08;13.47;;;8.07;;
42972;SDS011;28610;51.214;6.962;2022-12-18T07:01:53;13.77;;;8.53;;
42972;SDS011;28610;51.214;6.962;2022-12-18T07:04:38;14.40;;;8.33;;
42972;SDS011;28610;51.214;6.962;2022-12-18T07:07:24;11.73;;;8.50;;
42972;SDS011;28610;51.214;6.962;2022-12-18T07:10:11;13.67;;;8.40;;
42972;SDS011;28610;51.214;6.962;2022-12-18T07:12:56;14.77;;;8.10;;
42972;SDS011;28610;51.214;6.962;2022-12-18T07:15:42;15.47;;;9.00;;
42972;SDS011;28610;51.214;6.962;2022-12-18T07:18:27;14.60;;;9.23;;
42972;SDS011;28610;51.214;6.962;2022-12-18T07:21:14;18.00;;;9.80;;
42972;SDS011;28610;51.214;6.962;2022-12-18T07:23:59;14.67;;;9.63;;
42972;SDS011;28610;51.214;6.962;2022-12-18T07:26:46;16.50;;;9.87;;
42972;SDS011;28610;51.214;6.962;2022-12-18T07:29:32;15.97;;;9.53;;
42972;SDS011;28610;51.214;6.962;2022-12-18T07:32:17;16.03;;;9.37;;
42972;SDS011;28610;51.214;6.962;2022-12-18T07:35:03;15.03;;;9.37;;
42972;SDS011;28610;51.214;6.962;2022-12-18T07:37:49;15.20;;;9.47;;
42972;SDS011;28610;51.214;6.962;2022-12-18T07:40:34;12.60;;;8.50;;
42972;SDS011;28610;51.214;6.962;2022-12-18T07:43:21;17.13;;;10.10;;
42972;SDS011;28610;51.214;6.962;2022-12-18T07:46:07;17.20;;;10.23;;
42972;SDS011;28610;51.214;6.962;2022-12-18T07:48:53;16.30;;;9.30;;
42972;SDS011;28610;51.214;6.962;2022-12-18T07:51:39;15.87;;;9.43;;
42972;SDS011;28610;51.214;6.962;2022-12-18T07:54:24;15.73;;;9.17;;
42972;SDS011;28610;51.214;6.962;2022-12-18T07:57:10;16.70;;;10.13;;
42972;SDS011;28610;51.214;6.962;2022-12-18T07:59:56;18.97;;;10.77;;
42972;SDS011;28610;51.214;6.962;2022-12-18T08:02:42;19.27;;;9.90;;
42972;SDS011;28610;51.214;6.962;2022-12-18T08:05:28;18.07;;;10.60;;
42972;SDS011;28610;51.214;6.962;2022-12-18T08:08:13;19.20;;;10.03;;
42972;SDS011;28610;51.214;6.962;2022-12-18T08:10:59;20.33;;;10.43;;
42972;SDS011;28610;51.214;6.962;2022-12-18T08:13:44;16.13;;;10.30;;
42972;SDS011;28610;51.214;6.962;2022-12-18T08:16:31;16.20;;;9.57;;
42972;SDS011;28610;51.214;6.962;2022-12-18T08:19:17;15.10;;;10.03;;
42972;SDS011;28610;51.214;6.962;2022-12-18T08:22:02;16.47;;;9.63;;
42972;SDS011;28610;51.214;6.962;2022-12-18T08:24:48;17.67;;;9.97;;
42972;SDS011;28610;51.214;6.962;2022-12-18T08:27:33;17.77;;;9.63;;
42972;SDS011;28610;51.214;6.962;2022-12-18T08:30:19;13.90;;;8.73;;
42972;SDS011;28610;51.214;6.962;2022-12-18T08:33:06;18.53;;;9.70;;
42972;SDS011;28610;51.214;6.962;2022-12-18T08:35:52;18.07;;;9.60;;
42972;SDS011;28610;51.214;6.962;2022-12-18T08:38:37;14.53;;;9.13;;
42972;SDS011;28610;51.214;6.962;2022-12-18T08:41:23;18.13;;;9.77;;
42972;SDS011;28610;51.214;6.962;2022-12-18T08:44:09;15.70;;;9.40;;
42972;SDS011;28610;51.214;6.962;2022-12-18T08:47:13;18.50;;;10.67;;
42972;SDS011;28610;51.214;6.962;2022-12-18T08:49:59;18.83;;;11.27;;
42972;SDS011;28610;51.214;6.962;2022-12-18T08:52:45;17.07;;;10.40;;
42972;SDS011;28610;51.214;6.962;2022-12-18T08:55:31;18.07;;;10.87;;
42972;SDS011;28610;51.214;6.962;2022-12-18T08:58:16;21.10;;;10.10;;
42972;SDS011;28610;51.214;6.962;2022-12-18T09:01:03;19.67;;;10.13;;
42972;SDS011;28610;51.214;6.962;2022-12-18T09:03:48;15.93;;;9.37;;
42972;SDS011;28610;51.214;6.962;2022-12-18T09:06:35;16.83;;;9.50;;
42972;SDS011;28610;51.214;6.962;2022-12-18T09:09:21;16.70;;;9.77;;
42972;SDS011;28610;51.214;6.962;2022-12-18T09:12:07;15.83;;;9.20;;
42972;SDS011;28610;51.214;6.962;2022-12-18T09:14:52;15.73;;;9.77;;
42972;SDS011;28610;51.214;6.962;2022-12-18T09:17:38;14.97;;;9.23;;
42972;SDS011;28610;51.214;6.962;2022-12-18T09:20:23;16.53;;;9.27;;
42972;SDS011;28610;51.214;6.962;2022-12-18T09:23:13;16.70;;;9.57;;
42972;SDS011;28610;51.214;6.962;2022-12-18T09:25:59;14.97;;;9.10;;
42972;SDS011;28610;51.214;6.962;2022-12-18T09:28:44;18.27;;;9.53;;
42972;SDS011;28610;51.214;6.962;2022-12-18T09:31:30;16.40;;;9.37;;
42972;SDS011;28610;51.214;6.962;2022-12-18T09:34:16;16.83;;;9.60;;
42972;SDS011;28610;51.214;6.962;2022-12-18T09:37:02;15.17;;;9.23;;
42972;SDS011;28610;51.214;6.962;2022-12-18T09:39:48;15.23;;;9.70;;
42972;SDS011;28610;51.214;6.962;2022-12-18T09:42:34;16.10;;;8.97;;
42972;SDS011;28610;51.214;6.962;2022-12-18T09:45:20;14.50;;;8.70;;
42972;SDS011;28610;51.214;6.962;2022-12-18T09:48:05;15.03;;;8.97;;
42972;SDS011;28610;51.214;6.962;2022-12-18T09:50:55;13.47;;;8.37;;
42972;SDS011;28610;51.214;6.962;2022-12-18T09:53:43;14.33;;;8.47;;
42972;SDS011;28610;51.214;6.962;2022-12-18T09:56:31;16.37;;;9.70;;
42972;SDS011;28610;51.214;6.962;2022-12-18T09:59:21;15.33;;;9.50;;
42972;SDS011;28610;51.214;6.962;2022-12-18T10:02:12;13.57;;;8.67;;
42972;SDS011;28610;51.214;6.962;2022-12-18T10:05:02;17.67;;;9.77;;
42972;SDS011;28610;51.214;6.962;2022-12-18T10:07:50;16.17;;;9.47;;
42972;SDS011;28610;51.214;6.962;2022-12-18T10:10:39;16.77;;;9.60;;
42972;SDS011;28610;51.214;6.962;2022-12-18T10:13:30;15.27;;;9.03;;
42972;SDS011;28610;51.214;6.962;2022-12-18T10:16:17;15.07;;;9.57;;
42972;SDS011;28610;51.214;6.962;2022-12-18T10:19:10;17.17;;;9.60;;
42972;SDS011;28610;51.214;6.962;2022-12-18T10:22:01;13.37;;;9.00;;
42972;SDS011;28610;51.214;6.962;2022-12-18T10:24:50;15.70;;;9.67;;
42972;SDS011;28610;51.214;6.962;2022-12-18T10:27:38;15.13;;;9.13;;
42972;SDS011;28610;51.214;6.962;2022-12-18T10:30:25;14.50;;;8.53;;
42972;SDS011;28610;51.214;6.962;2022-12-18T10:33:11;16.03;;;9.33;;
42972;SDS011;28610;51.214;6.962;2022-12-18T10:35:58;16.67;;;9.27;;
42972;SDS011;28610;51.214;6.962;2022-12-18T10:38:43;14.93;;;8.93;;
42972;SDS011;28610;51.214;6.962;2022-12-18T10:41:29;13.67;;;8.60;;
42972;SDS011;28610;51.214;6.962;2022-12-18T10:44:16;19.07;;;9.83;;
42972;SDS011;28610;51.214;6.962;2022-12-18T10:47:05;16.73;;;10.00;;
42972;SDS011;28610;51.214;6.962;2022-12-18T10:49:52;16.93;;;9.90;;
42972;SDS011;28610;51.214;6.962;2022-12-18T10:52:38;15.40;;;9.23;;
42972;SDS011;28610;51.214;6.962;2022-12-18T10:55:24;16.67;;;10.03;;
42972;SDS011;28610;51.214;6.962;2022-12-18T10:58:21;16.70;;;10.07;;
42972;SDS011;28610;51.214;6.962;2022-12-18T11:01:09;14.50;;;9.00;;
42972;SDS011;28610;51.214;6.962;2022-12-18T11:04:00;15.57;;;8.77;;
42972;SDS011;28610;51.214;6.962;2022-12-18T11:06:53;15.47;;;9.23;;
42972;SDS011;28610;51.214;6.962;2022-12-18T11:09:39;18.50;;;9.87;;
42972;SDS011;28610;51.214;6.962;2022-12-18T11:12:26;17.97;;;10.37;;
42972;SDS011;28610;51.214;6.962;2022-12-18T11:15:15;15.77;;;10.03;;
42972;SDS011;28610;51.214;6.962;2022-12-18T11:18:02;18.50;;;9.83;;
42972;SDS011;28610;51.214;6.962;2022-12-18T11:20:53;20.07;;;10.60;;
42972;SDS011;28610;51.214;6.962;2022-12-18T11:23:44;15.53;;;9.30;;
42972;SDS011;28610;51.214;6.962;2022-12-18T11:26:33;17.07;;;9.87;;
42972;SDS011;28610;51.214;6.962;2022-12-18T11:29:22;16.73;;;9.60;;
42972;SDS011;28610;51.214;6.962;2022-12-18T11:32:26;16.13;;;9.50;;
42972;SDS011;28610;51.214;6.962;2022-12-18T11:35:15;18.63;;;10.13;;
42972;SDS011;28610;51.214;6.962;2022-12-18T11:38:05;16.90;;;9.63;;
42972;SDS011;28610;51.214;6.962;2022-12-18T11:40:53;19.77;;;9.53;;
42972;SDS011;28610;51.214;6.962;2022-12-18T11:43:41;14.17;;;9.07;;
42972;SDS011;28610;51.214;6.962;2022-12-18T11:46:30;16.93;;;10.27;;
42972;SDS011;28610;51.214;6.962;2022-12-18T11:49:20;16.13;;;9.90;;
42972;SDS011;28610;51.214;6.962;2022-12-18T11:52:09;18.03;;;10.70;;
42972;SDS011;28610;51.214;6.962;2022-12-18T11:54:59;16.10;;;10.00;;
42972;SDS011;28610;51.214;6.962;2022-12-18T11:57:49;19.30;;;9.67;;
42972;SDS011;28610;51.214;6.962;2022-12-18T12:00:39;17.23;;;10.07;;
42972;SDS011;28610;51.214;6.962;2022-12-18T12:03:39;22.10;;;10.87;;
42972;SDS011;28610;51.214;6.962;2022-12-18T12:06:31;21.63;;;11.20;;
42972;SDS011;28610;51.214;6.962;2022-12-18T12:09:21;20.50;;;11.00;;
42972;SDS011;28610;51.214;6.962;2022-12-18T12:12:15;18.67;;;10.37;;
42972;SDS011;28610;51.214;6.962;2022-12-18T12:15:06;16.50;;;10.40;;
42972;SDS011;28610;51.214;6.962;2022-12-18T12:18:00;19.90;;;10.83;;
42972;SDS011;28610;51.214;6.962;2022-12-18T12:20:49;17.60;;;10.03;;
42972;SDS011;28610;51.214;6.962;2022-12-18T12:23:38;19.23;;;10.13;;
42972;SDS011;28610;51.214;6.962;2022-12-18T12:26:26;19.30;;;10.37;;
42972;SDS011;28610;51.214;6.962;2022-12-18T12:29:19;20.50;;;11.30;;
42972;SDS011;28610;51.214;6.962;2022-12-18T12:32:12;20.63;;;11.83;;
42972;SDS011;28610;51.214;6.962;2022-12-18T12:35:06;21.73;;;11.43;;
42972;SDS011;28610;51.214;6.962;2022-12-18T12:37:56;21.33;;;11.10;;
42972;SDS011;28610;51.214;6.962;2022-12-18T12:40:44;23.60;;;12.33;;
42972;SDS011;28610;51.214;6.962;2022-12-18T12:43:32;21.17;;;11.70;;
42972;SDS011;28610;51.214;6.962;2022-12-18T12:46:20;25.03;;;12.90;;
42972;SDS011;28610;51.214;6.962;2022-12-18T12:49:09;22.40;;;12.37;;
42972;SDS011;28610;51.214;6.962;2022-12-18T12:51:58;18.23;;;10.93;;
42972;SDS011;28610;51.214;6.962;2022-12-18T12:54:45;20.73;;;12.20;;
42972;SDS011;28610;51.214;6.962;2022-12-18T12:57:33;21.20;;;12.10;;
42972;SDS011;28610;51.214;6.962;2022-12-18T13:00:20;21.03;;;12.60;;
42972;SDS011;28610;51.214;6.962;2022-12-18T13:03:12;22.60;;;12.53;;
42972;SDS011;28610;51.214;6.962;2022-12-18T13:05:59;24.13;;;13.13;;
42972;SDS011;28610;51.214;6.962;2022-12-18T13:08:52;24.17;;;13.23;;
42972;SDS011;28610;51.214;6.962;2022-12-18T13:11:38;25.93;;;14.13;;
42972;SDS011;28610;51.214;6.962;2022-12-18T13:14:43;26.30;;;13.63;;
42972;SDS011;28610;51.214;6.962;2022-12-18T13:17:29;18.27;;;11.30;;
42972;SDS011;28610;51.214;6.962;2022-12-18T13:20:16;22.63;;;13.10;;
42972;SDS011;28610;51.214;6.962;2022-12-18T13:23:18;31.20;;;16.33;;
42972;SDS011;28610;51.214;6.962;2022-12-18T13:29:04;22.17;;;12.53;;
42972;SDS011;28610;51.214;6.962;2022-12-18T13:31:57;22.27;;;13.37;;
42972;SDS011;28610;51.214;6.962;2022-12-18T13:34:43;29.27;;;14.37;;
42972;SDS011;28610;51.214;6.962;2022-12-18T13:37:43;25.83;;;12.90;;
42972;SDS011;28610;51.214;6.962;2022-12-18T13:40:53;22.53;;;12.63;;
42972;SDS011;28610;51.214;6.962;2022-12-18T13:43:40;24.80;;;14.30;;
42972;SDS011;28610;51.214;6.962;2022-12-18T13:46:27;29.27;;;15.27;;
42972;SDS011;28610;51.214;6.962;2022-12-18T13:49:18;29.07;;;14.67;;
42972;SDS011;28610;51.214;6.962;2022-12-18T13:52:14;30.40;;;15.17;;
42972;SDS011;28610;51.214;6.962;2022-12-18T13:55:04;27.63;;;14.30;;
42972;SDS011;28610;51.214;6.962;2022-12-18T13:57:54;29.60;;;15.00;;
42972;SDS011;28610;51.214;6.962;2022-12-18T14:00:48;25.67;;;14.43;;
42972;SDS011;28610;51.214;6.962;2022-12-18T14:03:33;29.27;;;15.37;;
42972;SDS011;28610;51.214;6.962;2022-12-18T14:06:19;27.07;;;15.47;;
42972;SDS011;28610;51.214;6.962;2022-12-18T14:09:05;33.40;;;18.20;;
42972;SDS011;28610;51.214;6.962;2022-12-18T14:11:53;28.73;;;15.07;;
42972;SDS011;28610;51.214;6.962;2022-12-18T14:15:00;25.27;;;14.80;;
42972;SDS011;28610;51.214;6.962;2022-12-18T14:17:46;29.60;;;15.23;;
42972;SDS011;28610;51.214;6.962;2022-12-18T14:20:32;27.23;;;16.17;;
42972;SDS011;28610;51.214;6.962;2022-12-18T14:23:27;35.13;;;15.50;;
42972;SDS011;28610;51.214;6.962;2022-12-18T14:26:20;31.47;;;15.33;;
42972;SDS011;28610;51.214;6.962;2022-12-18T14:29:19;38.53;;;18.50;;
42972;SDS011;28610;51.214;6.962;2022-12-18T14:32:05;29.90;;;15.70;;
42972;SDS011;28610;51.214;6.962;2022-12-18T14:34:52;29.57;;;15.47;;
42972;SDS011;28610;51.214;6.962;2022-12-18T14:37:38;34.87;;;17.83;;
42972;SDS011;28610;51.214;6.962;2022-12-18T14:40:24;27.67;;;15.20;;
42972;SDS011;28610;51.214;6.962;2022-12-18T14:43:10;45.53;;;22.57;;
42972;SDS011;28610;51.214;6.962;2022-12-18T14:45:57;32.20;;;16.73;;
42972;SDS011;28610;51.214;6.962;2022-12-18T14:48:43;36.83;;;18.30;;
42972;SDS011;28610;51.214;6.962;2022-12-18T14:51:33;36.47;;;16.33;;
42972;SDS011;28610;51.214;6.962;2022-12-18T14:54:20;27.67;;;16.53;;
42972;SDS011;28610;51.214;6.962;2022-12-18T14:57:13;28.53;;;15.47;;
42972;SDS011;28610;51.214;6.962;2022-12-18T15:00:03;31.20;;;15.63;;
42972;SDS011;28610;51.214;6.962;2022-12-18T15:02:51;28.30;;;16.37;;
42972;SDS011;28610;51.214;6.962;2022-12-18T15:05:38;36.60;;;16.00;;
42972;SDS011;28610;51.214;6.962;2022-12-18T15:08:28;28.40;;;16.57;;
42972;SDS011;28610;51.214;6.962;2022-12-18T15:14:31;32.67;;;16.63;;
42972;SDS011;28610;51.214;6.962;2022-12-18T15:17:18;32.07;;;16.23;;
42972;SDS011;28610;51.214;6.962;2022-12-18T15:20:09;28.83;;;16.43;;
42972;SDS011;28610;51.214;6.962;2022-12-18T15:22:55;36.20;;;16.90;;
42972;SDS011;28610;51.214;6.962;2022-12-18T15:25:41;26.67;;;13.90;;
42972;SDS011;28610;51.214;6.962;2022-12-18T15:28:27;34.07;;;17.10;;
42972;SDS011;28610;51.214;6.962;2022-12-18T15:31:30;30.57;;;16.27;;
42972;SDS011;28610;51.214;6.962;2022-12-18T15:34:18;31.93;;;16.77;;
42972;SDS011;28610;51.214;6.962;2022-12-18T15:37:07;33.97;;;17.47;;
42972;SDS011;28610;51.214;6.962;2022-12-18T15:39:52;38.73;;;20.10;;
42972;SDS011;28610;51.214;6.962;2022-12-18T15:42:38;34.60;;;17.67;;
42972;SDS011;28610;51.214;6.962;2022-12-18T15:45:41;36.93;;;18.27;;
42972;SDS011;28610;51.214;6.962;2022-12-18T15:48:27;40.10;;;19.77;;
42972;SDS011;28610;51.214;6.962;2022-12-18T15:51:13;41.00;;;20.40;;
42972;SDS011;28610;51.214;6.962;2022-12-18T15:54:02;34.53;;;17.53;;
42972;SDS011;28610;51.214;6.962;2022-12-18T15:56:48;42.47;;;21.23;;
42972;SDS011;28610;51.214;6.962;2022-12-18T15:59:53;31.73;;;16.70;;
42972;SDS011;28610;51.214;6.962;2022-12-18T16:02:40;31.27;;;16.50;;
42972;SDS011;28610;51.214;6.962;2022-12-18T16:05:26;37.10;;;18.27;;
42972;SDS011;28610;51.214;6.962;2022-12-18T16:08:11;34.17;;;17.93;;
42972;SDS011;28610;51.214;6.962;2022-12-18T16:10:58;36.00;;;17.07;;
42972;SDS011;28610;51.214;6.962;2022-12-18T16:13:44;36.70;;;17.73;;
42972;SDS011;28610;51.214;6.962;2022-12-18T16:16:30;32.20;;;16.70;;
42972;SDS011;28610;51.214;6.962;2022-12-18T16:19:15;37.97;;;18.23;;
42972;SDS011;28610;51.214;6.962;2022-12-18T16:22:03;41.93;;;20.43;;
42972;SDS011;28610;51.214;6.962;2022-12-18T16:24:49;39.33;;;20.23;;
42972;SDS011;28610;51.214;6.962;2022-12-18T16:27:36;43.43;;;20.30;;
42972;SDS011;28610;51.214;6.962;2022-12-18T16:30:22;42.90;;;19.83;;
42972;SDS011;28610;51.214;6.962;2022-12-18T16:33:09;41.10;;;19.80;;
42972;SDS011;28610;51.214;6.962;2022-12-18T16:35:55;42.57;;;21.30;;
42972;SDS011;28610;51.214;6.962;2022-12-18T16:38:40;37.13;;;19.20;;